sensor_id;sensor_type;location;lat;lon;timestamp;P1;durP1;ratioP1;P2;durP2;ratioP2
59830;SDS011;45711;50.108;13.712;2023-06-14T03:25:24;15.60;;;4.90;;
59830;SDS011;45711;50.108;13.712;2023-06-14T03:48:31;18.48;;;5.70;;
59830;SDS011;45711;50.108;13.712;2023-06-14T05:16:36;9.15;;;6.90;;
59830;SDS011;45711;50.108;13.712;2023-06-14T05:22:35;7.97;;;6.00;;
59830;SDS011;45711;50.108;13.712;2023-06-14T05:44:45;13.95;;;5.18;;
59830;SDS011;45711;50.108;13.712;2023-06-14T05:47:43;28.73;;;5.75;;
59830;SDS011;45711;50.108;13.712;2023-06-14T05:50:38;7.57;;;5.85;;
59830;SDS011;45711;50.108;13.712;2023-06-14T05:53:29;5.05;;;4.25;;
59830;SDS011;45711;50.108;13.712;2023-06-14T06:05:22;6.95;;;4.00;;
59830;SDS011;45711;50.108;13.712;2023-06-14T06:07:48;7.85;;;3.70;;
59830;SDS011;45711;50.108;13.712;2023-06-14T06:10:15;4.65;;;3.60;;
59830;SDS011;45711;50.108;13.712;2023-06-14T06:15:39;5.65;;;4.00;;
59830;SDS011;45711;50.108;13.712;2023-06-14T06:18:10;6.78;;;3.78;;
59830;SDS011;45711;50.108;13.712;2023-06-14T06:24:07;4.80;;;3.92;;
59830;SDS011;45711;50.108;13.712;2023-06-14T06:26:32;5.05;;;3.90;;
59830;SDS011;45711;50.108;13.712;2023-06-14T06:29:06;4.78;;;3.30;;
59830;SDS011;45711;50.108;13.712;2023-06-14T06:31:32;6.40;;;2.90;;
59830;SDS011;45711;50.108;13.712;2023-06-14T06:36:43;5.22;;;4.00;;
59830;SDS011;45711;50.108;13.712;2023-06-14T06:39:14;5.95;;;4.25;;
59830;SDS011;45711;50.108;13.712;2023-06-14T06:41:44;6.72;;;4.15;;
59830;SDS011;45711;50.108;13.712;2023-06-14T06:44:10;6.63;;;3.78;;
59830;SDS011;45711;50.108;13.712;2023-06-14T06:46:36;5.13;;;3.42;;
59830;SDS011;45711;50.108;13.712;2023-06-14T06:49:08;6.85;;;3.95;;
59830;SDS011;45711;50.108;13.712;2023-06-14T06:51:43;4.85;;;3.47;;
59830;SDS011;45711;50.108;13.712;2023-06-14T06:54:28;27.27;;;4.05;;
59830;SDS011;45711;50.108;13.712;2023-06-14T06:57:03;10.23;;;3.15;;
59830;SDS011;45711;50.108;13.712;2023-06-14T06:59:33;5.05;;;3.33;;
59830;SDS011;45711;50.108;13.712;2023-06-14T07:02:04;8.00;;;3.33;;
59830;SDS011;45711;50.108;13.712;2023-06-14T07:07:09;8.85;;;3.45;;
59830;SDS011;45711;50.108;13.712;2023-06-14T07:09:42;4.00;;;3.17;;
59830;SDS011;45711;50.108;13.712;2023-06-14T07:15:01;7.35;;;3.42;;
59830;SDS011;45711;50.108;13.712;2023-06-14T07:24:03;11.80;;;3.33;;
59830;SDS011;45711;50.108;13.712;2023-06-14T07:26:45;10.02;;;2.95;;
59830;SDS011;45711;50.108;13.712;2023-06-14T07:29:16;5.40;;;2.88;;
59830;SDS011;45711;50.108;13.712;2023-06-14T07:31:50;5.47;;;2.45;;
59830;SDS011;45711;50.108;13.712;2023-06-14T07:34:20;3.95;;;2.90;;
59830;SDS011;45711;50.108;13.712;2023-06-14T07:36:52;4.72;;;2.75;;
59830;SDS011;45711;50.108;13.712;2023-06-14T07:39:31;5.00;;;2.60;;
59830;SDS011;45711;50.108;13.712;2023-06-14T07:48:10;4.20;;;2.63;;
59830;SDS011;45711;50.108;13.712;2023-06-14T07:50:36;10.93;;;3.38;;
59830;SDS011;45711;50.108;13.712;2023-06-14T07:53:13;5.25;;;2.72;;
59830;SDS011;45711;50.108;13.712;2023-06-14T07:56:02;3.95;;;2.58;;
59830;SDS011;45711;50.108;13.712;2023-06-14T08:07:28;4.57;;;3.17;;
59830;SDS011;45711;50.108;13.712;2023-06-14T08:10:00;6.32;;;3.05;;
59830;SDS011;45711;50.108;13.712;2023-06-14T08:17:24;7.60;;;3.15;;
59830;SDS011;45711;50.108;13.712;2023-06-14T08:18:48;5.82;;;3.50;;
59830;SDS011;45711;50.108;13.712;2023-06-14T08:21:31;3.47;;;2.50;;
59830;SDS011;45711;50.108;13.712;2023-06-14T08:24:05;6.57;;;3.00;;
59830;SDS011;45711;50.108;13.712;2023-06-14T08:29:56;6.93;;;2.90;;
59830;SDS011;45711;50.108;13.712;2023-06-14T08:35:16;5.57;;;3.25;;
59830;SDS011;45711;50.108;13.712;2023-06-14T08:40:56;5.20;;;2.88;;
59830;SDS011;45711;50.108;13.712;2023-06-14T08:43:42;5.13;;;2.95;;
59830;SDS011;45711;50.108;13.712;2023-06-14T08:46:13;5.72;;;2.95;;
59830;SDS011;45711;50.108;13.712;2023-06-14T08:48:50;8.80;;;3.13;;
59830;SDS011;45711;50.108;13.712;2023-06-14T08:51:25;5.05;;;2.55;;
59830;SDS011;45711;50.108;13.712;2023-06-14T08:54:11;10.23;;;2.90;;
59830;SDS011;45711;50.108;13.712;2023-06-14T08:56:55;6.70;;;2.78;;
59830;SDS011;45711;50.108;13.712;2023-06-14T08:59:25;3.95;;;2.80;;
59830;SDS011;45711;50.108;13.712;2023-06-14T09:01:59;7.80;;;2.67;;
59830;SDS011;45711;50.108;13.712;2023-06-14T09:17:44;11.88;;;2.70;;
59830;SDS011;45711;50.108;13.712;2023-06-14T09:20:13;7.70;;;3.35;;
59830;SDS011;45711;50.108;13.712;2023-06-14T09:22:51;3.58;;;2.50;;
59830;SDS011;45711;50.108;13.712;2023-06-14T09:25:54;6.05;;;2.60;;
59830;SDS011;45711;50.108;13.712;2023-06-14T09:29:47;9.07;;;2.67;;
59830;SDS011;45711;50.108;13.712;2023-06-14T09:32:14;18.95;;;3.03;;
59830;SDS011;45711;50.108;13.712;2023-06-14T09:35:15;32.17;;;2.85;;
59830;SDS011;45711;50.108;13.712;2023-06-14T09:38:00;24.55;;;2.90;;
59830;SDS011;45711;50.108;13.712;2023-06-14T12:39:21;3.88;;;2.28;;
59830;SDS011;45711;50.108;13.712;2023-06-14T12:41:47;8.35;;;2.47;;
59830;SDS011;45711;50.108;13.712;2023-06-14T12:44:14;16.02;;;2.53;;
59830;SDS011;45711;50.108;13.712;2023-06-14T12:46:42;4.85;;;2.70;;
59830;SDS011;45711;50.108;13.712;2023-06-14T12:49:09;5.70;;;2.60;;
59830;SDS011;45711;50.108;13.712;2023-06-14T12:51:37;6.13;;;2.60;;
59830;SDS011;45711;50.108;13.712;2023-06-14T12:54:07;4.63;;;2.78;;
59830;SDS011;45711;50.108;13.712;2023-06-14T12:56:41;4.53;;;2.65;;
59830;SDS011;45711;50.108;13.712;2023-06-14T12:59:08;7.43;;;2.70;;
59830;SDS011;45711;50.108;13.712;2023-06-14T13:01:34;3.58;;;2.63;;
59830;SDS011;45711;50.108;13.712;2023-06-14T13:04:03;8.95;;;2.65;;
59830;SDS011;45711;50.108;13.712;2023-06-14T13:06:36;2.55;;;2.17;;
59830;SDS011;45711;50.108;13.712;2023-06-14T13:09:02;3.42;;;2.70;;
59830;SDS011;45711;50.108;13.712;2023-06-14T13:11:28;4.10;;;2.67;;
59830;SDS011;45711;50.108;13.712;2023-06-14T13:13:56;3.88;;;2.45;;
59830;SDS011;45711;50.108;13.712;2023-06-14T13:16:22;3.70;;;2.65;;
59830;SDS011;45711;50.108;13.712;2023-06-14T13:18:51;7.10;;;2.70;;
59830;SDS011;45711;50.108;13.712;2023-06-14T13:21:17;5.53;;;2.53;;
59830;SDS011;45711;50.108;13.712;2023-06-14T13:23:49;7.85;;;2.42;;
59830;SDS011;45711;50.108;13.712;2023-06-14T13:26:22;5.78;;;2.75;;
59830;SDS011;45711;50.108;13.712;2023-06-14T13:29:23;4.10;;;2.75;;
59830;SDS011;45711;50.108;13.712;2023-06-14T13:31:54;4.28;;;2.55;;
59830;SDS011;45711;50.108;13.712;2023-06-14T13:34:36;6.72;;;2.60;;
59830;SDS011;45711;50.108;13.712;2023-06-14T13:37:04;4.60;;;2.33;;
59830;SDS011;45711;50.108;13.712;2023-06-14T13:43:18;6.10;;;2.30;;
59830;SDS011;45711;50.108;13.712;2023-06-14T13:56:09;3.78;;;2.50;;
59830;SDS011;45711;50.108;13.712;2023-06-14T13:58:46;5.32;;;2.78;;
59830;SDS011;45711;50.108;13.712;2023-06-14T14:01:12;3.65;;;2.55;;
59830;SDS011;45711;50.108;13.712;2023-06-14T14:03:59;3.83;;;2.50;;
59830;SDS011;45711;50.108;13.712;2023-06-14T14:06:33;6.07;;;2.85;;
59830;SDS011;45711;50.108;13.712;2023-06-14T14:09:34;3.95;;;2.53;;
59830;SDS011;45711;50.108;13.712;2023-06-14T14:12:35;3.95;;;2.80;;
59830;SDS011;45711;50.108;13.712;2023-06-14T14:16:00;5.97;;;2.75;;
59830;SDS011;45711;50.108;13.712;2023-06-14T14:18:28;6.82;;;3.08;;
59830;SDS011;45711;50.108;13.712;2023-06-14T14:20:57;4.05;;;2.88;;
59830;SDS011;45711;50.108;13.712;2023-06-14T14:23:55;5.60;;;3.03;;
59830;SDS011;45711;50.108;13.712;2023-06-14T14:30:13;3.38;;;2.53;;
59830;SDS011;45711;50.108;13.712;2023-06-14T14:32:48;5.30;;;3.00;;
59830;SDS011;45711;50.108;13.712;2023-06-14T14:38:46;8.25;;;3.00;;
59830;SDS011;45711;50.108;13.712;2023-06-14T14:44:15;5.65;;;2.95;;
59830;SDS011;45711;50.108;13.712;2023-06-14T14:46:48;3.38;;;2.80;;
59830;SDS011;45711;50.108;13.712;2023-06-14T14:49:30;4.82;;;2.55;;
59830;SDS011;45711;50.108;13.712;2023-06-14T14:53:12;10.32;;;2.90;;
59830;SDS011;45711;50.108;13.712;2023-06-14T14:55:29;143.88;;;6.22;;
59830;SDS011;45711;50.108;13.712;2023-06-14T15:00:37;4.22;;;2.80;;
59830;SDS011;45711;50.108;13.712;2023-06-14T15:03:14;7.50;;;2.90;;
59830;SDS011;45711;50.108;13.712;2023-06-14T15:05:40;5.07;;;2.92;;
59830;SDS011;45711;50.108;13.712;2023-06-14T15:08:08;12.88;;;3.17;;
59830;SDS011;45711;50.108;13.712;2023-06-14T15:10:43;3.38;;;2.55;;
59830;SDS011;45711;50.108;13.712;2023-06-14T15:13:57;6.70;;;2.80;;
59830;SDS011;45711;50.108;13.712;2023-06-14T15:16:55;7.57;;;3.10;;
59830;SDS011;45711;50.108;13.712;2023-06-14T15:19:57;4.90;;;3.00;;
59830;SDS011;45711;50.108;13.712;2023-06-14T15:22:35;4.57;;;2.88;;
59830;SDS011;45711;50.108;13.712;2023-06-14T15:25:17;5.90;;;3.30;;
59830;SDS011;45711;50.108;13.712;2023-06-14T15:27:48;11.68;;;3.80;;
59830;SDS011;45711;50.108;13.712;2023-06-14T15:30:16;6.22;;;3.40;;
59830;SDS011;45711;50.108;13.712;2023-06-14T15:32:43;6.75;;;3.70;;
59830;SDS011;45711;50.108;13.712;2023-06-14T15:35:14;8.88;;;4.10;;
59830;SDS011;45711;50.108;13.712;2023-06-14T15:37:40;5.18;;;3.53;;
59830;SDS011;45711;50.108;13.712;2023-06-14T15:40:08;26.85;;;3.97;;
59830;SDS011;45711;50.108;13.712;2023-06-14T15:42:37;5.80;;;3.88;;
59830;SDS011;45711;50.108;13.712;2023-06-14T15:51:23;10.35;;;3.78;;
59830;SDS011;45711;50.108;13.712;2023-06-14T15:53:51;5.85;;;3.40;;
59830;SDS011;45711;50.108;13.712;2023-06-14T15:56:17;4.53;;;3.42;;
59830;SDS011;45711;50.108;13.712;2023-06-14T15:58:47;5.82;;;3.53;;
59830;SDS011;45711;50.108;13.712;2023-06-14T16:01:15;5.75;;;3.65;;
59830;SDS011;45711;50.108;13.712;2023-06-14T16:03:44;12.20;;;3.63;;
59830;SDS011;45711;50.108;13.712;2023-06-14T16:06:20;11.02;;;4.20;;
59830;SDS011;45711;50.108;13.712;2023-06-14T16:09:06;10.48;;;3.88;;
59830;SDS011;45711;50.108;13.712;2023-06-14T16:11:32;6.95;;;3.90;;
59830;SDS011;45711;50.108;13.712;2023-06-14T16:13:58;11.52;;;3.88;;
59830;SDS011;45711;50.108;13.712;2023-06-14T16:16:24;12.45;;;4.38;;
59830;SDS011;45711;50.108;13.712;2023-06-14T16:18:52;8.82;;;3.95;;
59830;SDS011;45711;50.108;13.712;2023-06-14T16:21:28;9.10;;;4.32;;
59830;SDS011;45711;50.108;13.712;2023-06-14T16:23:53;10.40;;;4.00;;
59830;SDS011;45711;50.108;13.712;2023-06-14T16:26:21;8.82;;;4.07;;
59830;SDS011;45711;50.108;13.712;2023-06-14T16:28:47;9.77;;;3.97;;
59830;SDS011;45711;50.108;13.712;2023-06-14T16:31:15;11.90;;;4.00;;
59830;SDS011;45711;50.108;13.712;2023-06-14T16:33:47;14.75;;;4.05;;
59830;SDS011;45711;50.108;13.712;2023-06-14T16:36:21;8.38;;;3.78;;
59830;SDS011;45711;50.108;13.712;2023-06-14T16:39:03;15.73;;;3.92;;
59830;SDS011;45711;50.108;13.712;2023-06-14T16:41:29;5.18;;;3.42;;
59830;SDS011;45711;50.108;13.712;2023-06-14T16:44:04;9.52;;;3.60;;
59830;SDS011;45711;50.108;13.712;2023-06-14T16:46:40;8.02;;;3.90;;
59830;SDS011;45711;50.108;13.712;2023-06-14T16:49:15;9.02;;;4.00;;
59830;SDS011;45711;50.108;13.712;2023-06-14T16:51:53;41.42;;;4.68;;
59830;SDS011;45711;50.108;13.712;2023-06-14T16:54:27;4.85;;;3.53;;
59830;SDS011;45711;50.108;13.712;2023-06-14T16:57:10;11.10;;;3.67;;
59830;SDS011;45711;50.108;13.712;2023-06-14T16:59:36;7.90;;;3.65;;
59830;SDS011;45711;50.108;13.712;2023-06-14T17:02:05;8.60;;;3.70;;
59830;SDS011;45711;50.108;13.712;2023-06-14T17:04:43;5.65;;;3.47;;
59830;SDS011;45711;50.108;13.712;2023-06-14T17:07:34;5.50;;;3.80;;
59830;SDS011;45711;50.108;13.712;2023-06-14T17:14:07;5.72;;;3.60;;
59830;SDS011;45711;50.108;13.712;2023-06-14T17:16:55;5.78;;;3.53;;
59830;SDS011;45711;50.108;13.712;2023-06-14T17:19:34;4.55;;;3.70;;
59830;SDS011;45711;50.108;13.712;2023-06-14T17:22:25;6.18;;;4.03;;
59830;SDS011;45711;50.108;13.712;2023-06-14T17:25:02;5.45;;;3.80;;
59830;SDS011;45711;50.108;13.712;2023-06-14T17:27:34;8.48;;;4.10;;
59830;SDS011;45711;50.108;13.712;2023-06-14T17:30:09;4.63;;;3.50;;
59830;SDS011;45711;50.108;13.712;2023-06-14T17:32:38;9.15;;;4.18;;
59830;SDS011;45711;50.108;13.712;2023-06-14T17:35:21;6.13;;;3.78;;
59830;SDS011;45711;50.108;13.712;2023-06-14T17:38:05;6.30;;;3.78;;
59830;SDS011;45711;50.108;13.712;2023-06-14T17:40:36;5.55;;;3.88;;
59830;SDS011;45711;50.108;13.712;2023-06-14T17:43:04;6.47;;;4.40;;
59830;SDS011;45711;50.108;13.712;2023-06-14T17:45:34;5.20;;;3.80;;
59830;SDS011;45711;50.108;13.712;2023-06-14T17:48:05;6.32;;;4.00;;
59830;SDS011;45711;50.108;13.712;2023-06-14T17:50:31;6.57;;;4.05;;
59830;SDS011;45711;50.108;13.712;2023-06-14T17:52:59;4.65;;;3.53;;
59830;SDS011;45711;50.108;13.712;2023-06-14T17:55:35;6.00;;;4.03;;
59830;SDS011;45711;50.108;13.712;2023-06-14T17:58:05;6.55;;;4.07;;
59830;SDS011;45711;50.108;13.712;2023-06-14T18:03:24;6.13;;;3.83;;
59830;SDS011;45711;50.108;13.712;2023-06-14T18:05:59;7.97;;;3.90;;
59830;SDS011;45711;50.108;13.712;2023-06-14T18:08:32;8.60;;;3.83;;
59830;SDS011;45711;50.108;13.712;2023-06-14T18:11:08;8.70;;;4.15;;
59830;SDS011;45711;50.108;13.712;2023-06-14T18:13:37;5.90;;;4.00;;
59830;SDS011;45711;50.108;13.712;2023-06-14T18:16:14;6.78;;;4.35;;
59830;SDS011;45711;50.108;13.712;2023-06-14T18:18:43;6.85;;;4.03;;
59830;SDS011;45711;50.108;13.712;2023-06-14T18:21:36;6.80;;;4.60;;
59830;SDS011;45711;50.108;13.712;2023-06-14T18:24:12;6.70;;;4.20;;
59830;SDS011;45711;50.108;13.712;2023-06-14T18:26:44;6.85;;;4.47;;
59830;SDS011;45711;50.108;13.712;2023-06-14T18:29:26;6.47;;;4.60;;
59830;SDS011;45711;50.108;13.712;2023-06-14T18:32:16;5.05;;;4.47;;
59830;SDS011;45711;50.108;13.712;2023-06-14T18:40:59;12.80;;;4.57;;
59830;SDS011;45711;50.108;13.712;2023-06-14T18:43:34;7.75;;;4.57;;
59830;SDS011;45711;50.108;13.712;2023-06-14T18:46:35;6.85;;;4.50;;
59830;SDS011;45711;50.108;13.712;2023-06-14T18:49:08;6.38;;;4.57;;
59830;SDS011;45711;50.108;13.712;2023-06-14T18:51:39;10.18;;;4.78;;
59830;SDS011;45711;50.108;13.712;2023-06-14T18:57:14;9.05;;;5.13;;
59830;SDS011;45711;50.108;13.712;2023-06-14T18:59:42;11.25;;;4.88;;
59830;SDS011;45711;50.108;13.712;2023-06-14T19:02:22;5.82;;;4.97;;
59830;SDS011;45711;50.108;13.712;2023-06-14T19:04:55;5.88;;;4.50;;
59830;SDS011;45711;50.108;13.712;2023-06-14T19:07:27;8.27;;;4.70;;
59830;SDS011;45711;50.108;13.712;2023-06-14T19:10:08;5.38;;;4.80;;
59830;SDS011;45711;50.108;13.712;2023-06-14T19:12:53;10.27;;;4.93;;
59830;SDS011;45711;50.108;13.712;2023-06-14T19:15:39;8.57;;;4.85;;
59830;SDS011;45711;50.108;13.712;2023-06-14T19:18:50;7.22;;;4.43;;
59830;SDS011;45711;50.108;13.712;2023-06-14T19:21:35;6.90;;;4.85;;
59830;SDS011;45711;50.108;13.712;2023-06-14T19:24:02;6.90;;;5.15;;
59830;SDS011;45711;50.108;13.712;2023-06-14T19:26:35;7.25;;;4.88;;
59830;SDS011;45711;50.108;13.712;2023-06-14T19:29:03;6.72;;;5.20;;
59830;SDS011;45711;50.108;13.712;2023-06-14T19:35:44;7.13;;;4.63;;
59830;SDS011;45711;50.108;13.712;2023-06-14T19:38:20;7.80;;;5.10;;
59830;SDS011;45711;50.108;13.712;2023-06-14T19:40:52;9.10;;;5.50;;
59830;SDS011;45711;50.108;13.712;2023-06-14T19:43:21;7.80;;;5.63;;
59830;SDS011;45711;50.108;13.712;2023-06-14T19:45:52;9.15;;;5.93;;
59830;SDS011;45711;50.108;13.712;2023-06-14T19:48:19;7.00;;;5.30;;
59830;SDS011;45711;50.108;13.712;2023-06-14T19:50:48;8.75;;;5.63;;
59830;SDS011;45711;50.108;13.712;2023-06-14T19:53:23;7.72;;;5.57;;
59830;SDS011;45711;50.108;13.712;2023-06-14T19:56:01;6.00;;;5.40;;
59830;SDS011;45711;50.108;13.712;2023-06-14T19:58:34;8.40;;;5.50;;
59830;SDS011;45711;50.108;13.712;2023-06-14T20:01:16;10.68;;;6.07;;
59830;SDS011;45711;50.108;13.712;2023-06-14T20:03:48;7.65;;;5.55;;
59830;SDS011;45711;50.108;13.712;2023-06-14T20:06:31;6.93;;;5.32;;
59830;SDS011;45711;50.108;13.712;2023-06-14T20:09:05;7.55;;;5.22;;
59830;SDS011;45711;50.108;13.712;2023-06-14T20:11:36;8.32;;;6.45;;
59830;SDS011;45711;50.108;13.712;2023-06-14T20:14:02;9.38;;;6.18;;
59830;SDS011;45711;50.108;13.712;2023-06-14T20:16:30;6.82;;;5.47;;
59830;SDS011;45711;50.108;13.712;2023-06-14T20:18:59;9.90;;;6.18;;
59830;SDS011;45711;50.108;13.712;2023-06-14T20:21:28;10.90;;;7.25;;
59830;SDS011;45711;50.108;13.712;2023-06-14T20:23:53;17.45;;;9.57;;
59830;SDS011;45711;50.108;13.712;2023-06-14T20:26:30;19.50;;;9.20;;
59830;SDS011;45711;50.108;13.712;2023-06-14T20:28:55;16.00;;;8.75;;
59830;SDS011;45711;50.108;13.712;2023-06-14T20:31:24;11.85;;;6.60;;
59830;SDS011;45711;50.108;13.712;2023-06-14T20:33:59;10.43;;;6.43;;
59830;SDS011;45711;50.108;13.712;2023-06-14T20:36:32;10.98;;;6.40;;
59830;SDS011;45711;50.108;13.712;2023-06-14T20:38:58;8.90;;;6.13;;
59830;SDS011;45711;50.108;13.712;2023-06-14T20:41:28;9.18;;;6.82;;
59830;SDS011;45711;50.108;13.712;2023-06-14T20:44:10;8.15;;;6.85;;
59830;SDS011;45711;50.108;13.712;2023-06-14T20:46:41;8.60;;;6.70;;
59830;SDS011;45711;50.108;13.712;2023-06-14T20:49:08;11.43;;;7.03;;
59830;SDS011;45711;50.108;13.712;2023-06-14T20:51:41;11.50;;;6.80;;
59830;SDS011;45711;50.108;13.712;2023-06-14T20:54:07;11.10;;;6.55;;
59830;SDS011;45711;50.108;13.712;2023-06-14T20:56:37;10.13;;;6.60;;
59830;SDS011;45711;50.108;13.712;2023-06-14T20:59:07;9.45;;;6.60;;
59830;SDS011;45711;50.108;13.712;2023-06-14T21:01:35;7.88;;;6.72;;
59830;SDS011;45711;50.108;13.712;2023-06-14T21:04:05;10.25;;;6.32;;
59830;SDS011;45711;50.108;13.712;2023-06-14T21:06:31;12.38;;;6.90;;
59830;SDS011;45711;50.108;13.712;2023-06-14T21:08:59;9.73;;;7.03;;
59830;SDS011;45711;50.108;13.712;2023-06-14T21:11:26;8.73;;;7.00;;
59830;SDS011;45711;50.108;13.712;2023-06-14T21:13:55;8.90;;;6.63;;
59830;SDS011;45711;50.108;13.712;2023-06-14T21:16:21;12.77;;;7.30;;
59830;SDS011;45711;50.108;13.712;2023-06-14T21:18:51;17.02;;;7.10;;
59830;SDS011;45711;50.108;13.712;2023-06-14T21:21:17;8.57;;;7.20;;
59830;SDS011;45711;50.108;13.712;2023-06-14T21:23:43;11.68;;;7.57;;
59830;SDS011;45711;50.108;13.712;2023-06-14T21:26:09;8.27;;;6.80;;
59830;SDS011;45711;50.108;13.712;2023-06-14T21:28:42;10.05;;;7.30;;
59830;SDS011;45711;50.108;13.712;2023-06-14T21:31:29;8.57;;;7.00;;
59830;SDS011;45711;50.108;13.712;2023-06-14T21:33:55;10.90;;;7.63;;
59830;SDS011;45711;50.108;13.712;2023-06-14T21:36:21;9.05;;;7.13;;
59830;SDS011;45711;50.108;13.712;2023-06-14T21:38:48;13.25;;;7.53;;
59830;SDS011;45711;50.108;13.712;2023-06-14T21:41:20;14.93;;;7.75;;
59830;SDS011;45711;50.108;13.712;2023-06-14T21:43:48;13.68;;;7.47;;
59830;SDS011;45711;50.108;13.712;2023-06-14T21:46:17;14.45;;;7.63;;
59830;SDS011;45711;50.108;13.712;2023-06-14T21:48:45;9.75;;;6.57;;
59830;SDS011;45711;50.108;13.712;2023-06-14T21:51:15;12.65;;;7.63;;
59830;SDS011;45711;50.108;13.712;2023-06-14T21:53:44;11.15;;;7.68;;
59830;SDS011;45711;50.108;13.712;2023-06-14T21:56:14;14.05;;;7.43;;
59830;SDS011;45711;50.108;13.712;2023-06-14T21:58:48;10.45;;;7.35;;
59830;SDS011;45711;50.108;13.712;2023-06-14T22:01:17;9.15;;;7.28;;
59830;SDS011;45711;50.108;13.712;2023-06-14T22:03:49;11.68;;;7.78;;
59830;SDS011;45711;50.108;13.712;2023-06-14T22:06:20;13.30;;;7.47;;
59830;SDS011;45711;50.108;13.712;2023-06-14T22:08:57;11.32;;;7.63;;
59830;SDS011;45711;50.108;13.712;2023-06-14T22:11:30;11.10;;;7.55;;
59830;SDS011;45711;50.108;13.712;2023-06-14T22:14:00;11.00;;;7.68;;
59830;SDS011;45711;50.108;13.712;2023-06-14T22:16:29;12.77;;;7.90;;
59830;SDS011;45711;50.108;13.712;2023-06-14T22:21:45;12.45;;;7.82;;
59830;SDS011;45711;50.108;13.712;2023-06-14T22:24:22;10.65;;;7.47;;
59830;SDS011;45711;50.108;13.712;2023-06-14T22:26:49;11.93;;;7.03;;
59830;SDS011;45711;50.108;13.712;2023-06-14T22:29:21;9.65;;;7.45;;
59830;SDS011;45711;50.108;13.712;2023-06-14T22:31:47;9.63;;;7.47;;
59830;SDS011;45711;50.108;13.712;2023-06-14T22:34:19;14.10;;;8.25;;
59830;SDS011;45711;50.108;13.712;2023-06-14T22:36:47;11.90;;;7.85;;
59830;SDS011;45711;50.108;13.712;2023-06-14T22:39:16;9.73;;;7.57;;
59830;SDS011;45711;50.108;13.712;2023-06-14T22:41:44;11.27;;;7.80;;
59830;SDS011;45711;50.108;13.712;2023-06-14T22:44:12;10.80;;;7.80;;
59830;SDS011;45711;50.108;13.712;2023-06-14T22:46:41;11.80;;;7.40;;
59830;SDS011;45711;50.108;13.712;2023-06-14T22:49:09;16.02;;;7.38;;
59830;SDS011;45711;50.108;13.712;2023-06-14T22:51:39;12.43;;;8.05;;
59830;SDS011;45711;50.108;13.712;2023-06-14T22:54:07;12.60;;;8.43;;
59830;SDS011;45711;50.108;13.712;2023-06-14T22:56:33;11.40;;;7.13;;
59830;SDS011;45711;50.108;13.712;2023-06-14T22:58:59;13.90;;;7.38;;
59830;SDS011;45711;50.108;13.712;2023-06-14T23:01:27;16.15;;;8.23;;
59830;SDS011;45711;50.108;13.712;2023-06-14T23:04:01;17.17;;;7.30;;
59830;SDS011;45711;50.108;13.712;2023-06-14T23:06:27;16.50;;;7.60;;
59830;SDS011;45711;50.108;13.712;2023-06-14T23:08:55;11.30;;;7.82;;
59830;SDS011;45711;50.108;13.712;2023-06-14T23:11:21;11.90;;;7.68;;
59830;SDS011;45711;50.108;13.712;2023-06-14T23:13:49;10.48;;;7.50;;
59830;SDS011;45711;50.108;13.712;2023-06-14T23:16:25;11.68;;;8.45;;
59830;SDS011;45711;50.108;13.712;2023-06-14T23:18:51;11.75;;;7.88;;
59830;SDS011;45711;50.108;13.712;2023-06-14T23:21:17;11.23;;;7.85;;
59830;SDS011;45711;50.108;13.712;2023-06-14T23:23:43;12.30;;;7.63;;
59830;SDS011;45711;50.108;13.712;2023-06-14T23:26:14;13.43;;;8.20;;
59830;SDS011;45711;50.108;13.712;2023-06-14T23:28:40;10.35;;;8.07;;
59830;SDS011;45711;50.108;13.712;2023-06-14T23:31:07;13.13;;;8.45;;
59830;SDS011;45711;50.108;13.712;2023-06-14T23:33:33;12.10;;;7.95;;
59830;SDS011;45711;50.108;13.712;2023-06-14T23:35:59;12.10;;;7.95;;
59830;SDS011;45711;50.108;13.712;2023-06-14T23:38:27;10.10;;;8.30;;
59830;SDS011;45711;50.108;13.712;2023-06-14T23:40:56;12.23;;;8.48;;
59830;SDS011;45711;50.108;13.712;2023-06-14T23:43:24;13.85;;;8.20;;
59830;SDS011;45711;50.108;13.712;2023-06-14T23:45:51;11.48;;;8.15;;
59830;SDS011;45711;50.108;13.712;2023-06-14T23:48:18;9.38;;;7.63;;
59830;SDS011;45711;50.108;13.712;2023-06-14T23:50:44;13.70;;;7.40;;
59830;SDS011;45711;50.108;13.712;2023-06-14T23:53:10;13.00;;;8.23;;
59830;SDS011;45711;50.108;13.712;2023-06-14T23:55:35;10.80;;;7.97;;
59830;SDS011;45711;50.108;13.712;2023-06-14T23:58:02;11.05;;;7.95;;
